John James Audubon — WDE8037 — position and weather

sailwx.info

Track history (hours):
 
Tides and Currents Weather Stations Pressure Air Temp Water Temp Dewpoint Dewpoint Depression Visibility Wind Speed Wind Dir Waves Ship Positions

John James Audubon

Owner: Statue Cruises, Jersey City, NJ. More information available from US FCC via Universal Licensing System and Coast Guard Vessel Documentation Center.

Last reported at 2017-Oct-16 22:00 UTC. Time now 2017-Oct-16 22:19 UTC.
Position N 40°42' W 074°00'.

Length 37 m; draft 3 m.

Type: Ship. MMSI: 367400770.

Date/timePositionNaut miles runAvg speedWind from/ knotsBaromVisibWave heightAir tempDewpointWater temp
2017-Oct-16 22:00N 40°42' W 074°00'2 3.2
2017-Oct-16 21:31N 40°41' W 074°02'2 3.2
2017-Oct-16 21:00N 40°42' W 074°00'0 0.0
2017-Oct-16 20:30N 40°42' W 074°00'2 3.9
2017-Oct-16 20:00N 40°41' W 074°02'2 3.9
2017-Oct-16 19:30N 40°42' W 074°00'0 0.0
2017-Oct-16 19:00N 40°42' W 074°00'2 3.4
2017-Oct-16 18:30N 40°41' W 074°02'2 3.3
2017-Oct-16 18:00N 40°42' W 074°00'0 0.0
2017-Oct-16 17:30N 40°42' W 074°00'2 4.4
2017-Oct-16 17:01N 40°41' W 074°03'2 4.3
2017-Oct-16 16:30N 40°42' W 074°00'0 0.0
2017-Oct-16 16:00N 40°42' W 074°00'2 3.7
2017-Oct-16 15:30N 40°41' W 074°02'2 3.6
2017-Oct-16 15:00N 40°42' W 074°00'0 0.0
2017-Oct-16 14:00N 40°42' W 074°00'2 3.6
2017-Oct-16 13:30N 40°43' W 074°03'0 0.0
2017-Oct-16 13:00N 40°43' W 074°03'1 1.1
2017-Oct-16 12:31N 40°42' W 074°02'2 3.2
2017-Oct-16 12:01N 40°44' W 074°01'0 0.0
2017-Oct-15 22:54N 40°44' W 074°01'0 0.8
2017-Oct-15 22:30N 40°44' W 074°01'2 3.6
2017-Oct-15 22:00N 40°42' W 074°00'2 3.8
2017-Oct-15 21:30N 40°41' W 074°02'2 3.8
2017-Oct-15 21:00N 40°42' W 074°00'0 0.0
2017-Oct-15 20:30N 40°42' W 074°00'2 4.1
2017-Oct-15 20:00N 40°41' W 074°03'2 4.1
2017-Oct-15 19:30N 40°42' W 074°00'0 0.0
2017-Oct-15 19:00N 40°42' W 074°00'2 4.0
2017-Oct-15 18:30N 40°41' W 074°02'2 4.0
2017-Oct-15 18:00N 40°42' W 074°00'0 0.0
2017-Oct-15 17:30N 40°42' W 074°00'1 2.0
2017-Oct-15 17:00N 40°42' W 074°01'1 2.0
2017-Oct-15 16:30N 40°42' W 074°00'0 0.0
2017-Oct-15 16:00N 40°42' W 074°00'2 3.3
2017-Oct-15 15:30N 40°41' W 074°02'2 3.3
2017-Oct-15 15:00N 40°42' W 074°00'2 2.0
2017-Oct-15 14:00N 40°41' W 074°03'2 4.1
2017-Oct-15 13:30N 40°42' W 074°00'0 0.0
2017-Oct-15 13:00N 40°42' W 074°00'1 2.2
2017-Oct-15 12:30N 40°43' W 074°01'1 2.1
2017-Oct-15 12:00N 40°44' W 074°01'0 0.0
2017-Oct-15 06:04N 40°44' W 074°01'0 0.0
2017-Oct-15 06:00N 40°44' W 074°01'0 0.0
2017-Oct-15 05:30N 40°44' W 074°01'0 0.0
2017-Oct-15 05:00N 40°44' W 074°01'0 0.1
2017-Oct-15 04:30N 40°44' W 074°01'0 0.0
2017-Oct-15 04:00N 40°44' W 074°01'2 3.6
2017-Oct-15 03:30N 40°42' W 074°01'1 2.5
2017-Oct-15 03:00N 40°41' W 074°02'2 4.5
2017-Oct-15 02:30N 40°43' W 074°01'1 2.0
2017-Oct-15 02:00N 40°44' W 074°01'1 1.1
2017-Oct-15 01:30N 40°44' W 074°01'0 0.0
2017-Oct-15 01:00N 40°44' W 074°01'0 0.0
2017-Oct-15 00:30N 40°44' W 074°01'0 0.0
2017-Oct-15 00:00N 40°44' W 074°01'0 0.0
2017-Oct-14 23:30N 40°44' W 074°01'0 0.0
2017-Oct-14 23:00N 40°44' W 074°01'0 0.0
2017-Oct-14 20:53N 40°44' W 074°01'0 0.5
2017-Oct-14 20:30N 40°44' W 074°01'1 2.0
2017-Oct-14 20:00N 40°43' W 074°01'1 2.1
2017-Oct-14 19:30N 40°42' W 074°00'2 3.9
2017-Oct-14 19:00N 40°41' W 074°02'2 3.9
2017-Oct-14 18:30N 40°42' W 074°00'0 0.0
2017-Oct-14 17:59N 40°42' W 074°00'2 4.1
2017-Oct-14 17:30N 40°41' W 074°02'2 3.9
2017-Oct-14 16:59N 40°42' W 074°00'0 0.0
2017-Oct-14 16:30N 40°42' W 074°00'2 3.8
2017-Oct-14 16:00N 40°41' W 074°02'2 3.7
2017-Oct-14 15:30N 40°42' W 074°00'0 0.0
2017-Oct-14 15:00N 40°42' W 074°00'2 3.8
2017-Oct-14 14:30N 40°41' W 074°02'2 3.7
2017-Oct-14 14:00N 40°42' W 074°00'0 0.0
2017-Oct-14 13:30N 40°42' W 074°00'0 0.0
2017-Oct-14 13:00N 40°42' W 074°00'1 1.5
2017-Oct-14 12:30N 40°42' W 074°01'2 0.1
2017-Oct-13 22:37N 40°44' W 074°01'0 2.1
2017-Oct-13 22:30N 40°44' W 074°01'2 3.2
2017-Oct-13 22:00N 40°42' W 074°00'0 0.0
2017-Oct-13 21:00N 40°42' W 074°00'0 0.0
2017-Oct-13 20:30N 40°42' W 074°00'2 4.1
2017-Oct-13 20:00N 40°41' W 074°03'2 4.1
2017-Oct-13 19:30N 40°42' W 074°00'0 0.0
2017-Oct-13 19:00N 40°42' W 074°00'2 4.1
2017-Oct-13 18:30N 40°41' W 074°03'2 4.0
2017-Oct-13 18:00N 40°42' W 074°00'0 0.0
2017-Oct-13 17:30N 40°42' W 074°00'2 4.2
2017-Oct-13 17:00N 40°41' W 074°03'2 4.4
2017-Oct-13 16:30N 40°42' W 074°00'0 0.0
2017-Oct-13 16:00N 40°42' W 074°00'2 3.9
2017-Oct-13 15:29N 40°41' W 074°02'2 4.1
2017-Oct-13 15:00N 40°42' W 074°00'0 0.0
2017-Oct-13 14:30N 40°42' W 074°00'2 4.3
2017-Oct-13 14:00N 40°41' W 074°03'2 4.4
2017-Oct-13 13:30N 40°42' W 074°00'0 0.0
2017-Oct-13 13:00N 40°42' W 074°00'1 1.8
2017-Oct-13 12:31N 40°42' W 074°01'2 3.5
2017-Oct-13 12:00N 40°44' W 074°01'0 0.0
2017-Oct-12 22:57N 40°44' W 074°01'1 2.5
2017-Oct-12 22:30N 40°43' W 074°01'1 1.9
2017-Oct-12 22:00N 40°42' W 074°00'2 4.1
2017-Oct-12 21:30N 40°41' W 074°03'2 4.2
2017-Oct-12 21:00N 40°42' W 074°00'0 0.0
2017-Oct-12 20:30N 40°42' W 074°00'2 4.1
2017-Oct-12 20:00N 40°41' W 074°03'2 4.2
2017-Oct-12 19:30N 40°42' W 074°00'0 0.0
2017-Oct-12 19:00N 40°42' W 074°00'2 3.8
2017-Oct-12 18:30N 40°41' W 074°02'2 3.8
2017-Oct-12 18:00N 40°42' W 074°00'0 0.0
2017-Oct-12 17:30N 40°42' W 074°00'2 4.2
2017-Oct-12 17:00N 40°41' W 074°03'2 4.3
2017-Oct-12 16:30N 40°42' W 074°00'0 0.0
2017-Oct-12 16:00N 40°42' W 074°00'2 4.2
2017-Oct-12 15:30N 40°41' W 074°03'2 4.2
2017-Oct-12 15:00N 40°42' W 074°00'0 0.0
2017-Oct-12 14:30N 40°42' W 074°00'2 3.7
2017-Oct-12 14:00N 40°41' W 074°02'2 3.7
2017-Oct-12 13:30N 40°42' W 074°00'0 0.0
2017-Oct-12 13:00N 40°42' W 074°00'2 3.3
2017-Oct-12 12:30N 40°44' W 074°01'0 0.0
2017-Oct-11 22:42N 40°44' W 074°01'0 1.0
2017-Oct-11 22:30N 40°44' W 074°01'2 3.1
2017-Oct-11 22:00N 40°42' W 074°00'0 0.0
2017-Oct-11 20:59N 40°42' W 074°00'0 0.0
2017-Oct-11 20:30N 40°42' W 074°00'2 3.4
2017-Oct-11 20:00N 40°41' W 074°02'2 3.3
2017-Oct-11 19:30N 40°42' W 074°00'0 0.0
2017-Oct-11 19:00N 40°42' W 074°00'2 3.5
2017-Oct-11 18:30N 40°42' W 074°02'2 3.3
2017-Oct-11 18:00N 40°42' W 074°00'0 0.0
2017-Oct-11 17:31N 40°42' W 074°00'2 4.2
2017-Oct-11 17:01N 40°41' W 074°03'3 0.2
2017-Oct-10 22:48N 40°44' W 074°01'0 1.2
2017-Oct-10 22:31N 40°44' W 074°01'1 2.8
2017-Oct-10 22:00N 40°42' W 074°00'2 3.2
2017-Oct-10 21:31N 40°41' W 074°02'2 3.2
2017-Oct-10 21:01N 40°42' W 074°00'0 0.0
2017-Oct-10 20:30N 40°42' W 074°00'2 3.9
2017-Oct-10 20:00N 40°41' W 074°02'2 3.9
2017-Oct-10 19:30N 40°42' W 074°00'0 0.0
2017-Oct-10 19:01N 40°42' W 074°00'2 3.9
2017-Oct-10 18:31N 40°41' W 074°02'2 3.8
2017-Oct-10 18:00N 40°42' W 074°00'0 0.0
2017-Oct-10 17:30N 40°42' W 074°00'2 3.7
2017-Oct-10 17:01N 40°41' W 074°02'2 3.7
2017-Oct-10 16:31N 40°42' W 074°00'0 0.0
2017-Oct-10 16:00N 40°42' W 074°00'1 2.5
2017-Oct-10 15:30N 40°42' W 074°02'1 2.5
2017-Oct-10 15:01N 40°42' W 074°00'2 1.7
2017-Oct-10 14:01N 40°41' W 074°02'2 3.4
2017-Oct-10 13:30N 40°42' W 074°00'2 3.6
2017-Oct-10 13:01N 40°43' W 074°02'0 0.0
2017-Oct-10 12:30N 40°43' W 074°02'2 3.6
2017-Oct-10 12:01N 40°44' W 074°01'0 0.0
2017-Oct-09 22:41N 40°44' W 074°01'0 0.4
2017-Oct-09 22:30N 40°44' W 074°01'2 3.3
2017-Oct-09 22:00N 40°42' W 074°00'2 3.8
2017-Oct-09 21:30N 40°41' W 074°02'2 3.8
2017-Oct-09 21:00N 40°42' W 074°00'0 0.0
2017-Oct-09 20:30N 40°42' W 074°00'2 3.4
2017-Oct-09 20:00N 40°41' W 074°02'2 3.4
2017-Oct-09 19:30N 40°42' W 074°00'0 0.0
2017-Oct-09 19:00N 40°42' W 074°00'2 3.4
2017-Oct-09 18:30N 40°41' W 074°02'2 3.4
2017-Oct-09 18:00N 40°42' W 074°00'0 0.0
2017-Oct-09 17:30N 40°42' W 074°00'2 3.6
2017-Oct-09 17:00N 40°41' W 074°02'2 3.6
2017-Oct-09 16:30N 40°42' W 074°00'0 0.0
2017-Oct-09 16:00N 40°42' W 074°00'2 4.0
2017-Oct-09 15:30N 40°41' W 074°02'2 3.9
2017-Oct-09 15:00N 40°42' W 074°00'0 0.0
2017-Oct-09 14:30N 40°42' W 074°00'1 2.4
2017-Oct-09 14:00N 40°42' W 074°02'1 2.4
2017-Oct-09 13:30N 40°42' W 074°00'0 0.0
2017-Oct-09 13:00N 40°42' W 074°00'2 3.4
2017-Oct-09 12:30N 40°44' W 074°01'0 0.2
2017-Oct-09 12:00N 40°44' W 074°01'0 0.0
2017-Oct-09 11:30N 40°44' W 074°01'0 0.0
2017-Oct-08 22:54N 40°44' W 074°01'1 3.4
2017-Oct-08 22:30N 40°43' W 074°01'1 1.7
2017-Oct-08 22:00N 40°42' W 074°00'2 3.3
2017-Oct-08 21:30N 40°41' W 074°02'2 3.2
2017-Oct-08 21:00N 40°42' W 074°00'0 0.0
2017-Oct-08 20:30N 40°42' W 074°00'2 3.8
2017-Oct-08 20:00N 40°41' W 074°02'2 4.0
2017-Oct-08 19:30N 40°42' W 074°00'0 0.0
2017-Oct-08 18:59N 40°42' W 074°00'2 4.0
2017-Oct-08 18:30N 40°41' W 074°02'2 3.9
2017-Oct-08 18:00N 40°42' W 074°00'0 0.0
2017-Oct-08 17:30N 40°42' W 074°00'2 3.9
2017-Oct-08 17:00N 40°41' W 074°02'2 4.0
2017-Oct-08 16:30N 40°42' W 074°00'0 0.2
2017-Oct-08 16:00N 40°42' W 074°00'2 4.2
2017-Oct-08 15:30N 40°41' W 074°03'2 4.0
2017-Oct-08 15:00N 40°42' W 074°00'0 0.0
2017-Oct-08 14:30N 40°42' W 074°00'1 2.5
2017-Oct-08 14:00N 40°42' W 074°02'1 2.4
2017-Oct-08 13:30N 40°42' W 074°00'0 0.0
2017-Oct-08 13:00N 40°42' W 074°00'2 3.2
2017-Oct-08 12:30N 40°44' W 074°01'0 0.5
2017-Oct-08 12:00N 40°44' W 074°01'0 0.0
2017-Oct-08 03:52N 40°44' W 074°01'1 1.5
2017-Oct-08 03:30N 40°44' W 074°01'3 5.7
2017-Oct-08 03:00N 40°41' W 074°02'3 6.3
2017-Oct-08 02:30N 40°43' W 073°58'2 4.9
2017-Oct-08 02:00N 40°44' W 074°01'1 1.1
2017-Oct-08 01:30N 40°44' W 074°01'0 0.0
2017-Oct-07 20:27N 40°44' W 074°01'1 2.9
2017-Oct-07 20:00N 40°43' W 074°01'2 1.7
2017-Oct-07 19:00N 40°41' W 074°03'2 4.1
2017-Oct-07 18:30N 40°42' W 074°00'0 0.0
2017-Oct-07 18:00N 40°42' W 074°00'2 4.1
2017-Oct-07 17:30N 40°41' W 074°03'2 4.2
2017-Oct-07 17:00N 40°42' W 074°00'0 0.3
2017-Oct-07 16:30N 40°42' W 073°60'2 3.8
2017-Oct-07 16:00N 40°42' W 074°02'2 3.6
2017-Oct-07 15:30N 40°42' W 074°00'0 0.2
2017-Oct-07 15:00N 40°42' W 074°00'2 4.1
2017-Oct-07 14:30N 40°41' W 074°02'2 3.9
2017-Oct-07 14:00N 40°42' W 074°00'0 0.2
2017-Oct-07 13:30N 40°42' W 074°00'2 3.5
2017-Oct-07 13:00N 40°44' W 074°01'0 0.2
2017-Oct-07 12:30N 40°44' W 074°01'0 0.0
2017-Oct-07 07:41N 40°44' W 074°01'0 0.5
2017-Oct-07 07:30N 40°44' W 074°01'2 3.3
2017-Oct-07 07:00N 40°42' W 074°00'0 0.0
2017-Oct-07 06:30N 40°42' W 074°00'0 0.0
2017-Oct-07 06:00N 40°42' W 074°00'0 0.7
2017-Oct-07 05:30N 40°42' W 074°00'1 3.0
2017-Oct-07 05:00N 40°42' W 074°02'1 2.2
2017-Oct-07 04:30N 40°42' W 074°01'1 1.3
2017-Oct-07 04:00N 40°42' W 074°00'0 0.0
2017-Oct-07 03:30N 40°42' W 074°00'0 0.0
2017-Oct-07 02:59N 40°42' W 074°00'0 0.0
2017-Oct-07 02:30N 40°42' W 074°00'0 0.0
2017-Oct-07 02:00N 40°42' W 074°00'0 0.4
2017-Oct-07 01:30N 40°42' W 074°00'2 3.5
2017-Oct-07 01:00N 40°44' W 074°01'0 0.0
2017-Oct-07 00:30N 40°44' W 074°01'0 0.0
2017-Oct-07 00:00N 40°44' W 074°01'0 0.0
2017-Oct-06 23:30N 40°44' W 074°01'0 0.0
2017-Oct-06 23:00N 40°44' W 074°01'2 3.7
2017-Oct-06 22:30N 40°42' W 074°01'  
Track history (hours):
 
Tides and Currents Weather Stations Pressure Air Temp Water Temp Dewpoint Dewpoint Depression Visibility Wind Speed Wind Dir Waves Ship Positions

John James Audubon

Owner: Statue Cruises, Jersey City, NJ. More information available from US FCC via Universal Licensing System and Coast Guard Vessel Documentation Center.

Last reported at 2017-Oct-16 22:00 UTC. Time now 2017-Oct-16 22:19 UTC.
Position N 40°42' W 074°00'.

Length 37 m; draft 3 m.

Type: Ship. MMSI: 367400770.

Date/timePositionNaut miles runAvg speedWind from/ knotsBaromVisibWave heightAir tempDewpointWater temp
2017-Oct-16 22:00N 40°42' W 074°00'2 3.2
2017-Oct-16 21:31N 40°41' W 074°02'2 3.2
2017-Oct-16 21:00N 40°42' W 074°00'0 0.0
2017-Oct-16 20:30N 40°42' W 074°00'2 3.9
2017-Oct-16 20:00N 40°41' W 074°02'2 3.9
2017-Oct-16 19:30N 40°42' W 074°00'0 0.0
2017-Oct-16 19:00N 40°42' W 074°00'2 3.4
2017-Oct-16 18:30N 40°41' W 074°02'2 3.3
2017-Oct-16 18:00N 40°42' W 074°00'0 0.0
2017-Oct-16 17:30N 40°42' W 074°00'2 4.4
2017-Oct-16 17:01N 40°41' W 074°03'2 4.3
2017-Oct-16 16:30N 40°42' W 074°00'0 0.0
2017-Oct-16 16:00N 40°42' W 074°00'2 3.7
2017-Oct-16 15:30N 40°41' W 074°02'2 3.6
2017-Oct-16 15:00N 40°42' W 074°00'0 0.0
2017-Oct-16 14:00N 40°42' W 074°00'2 3.6
2017-Oct-16 13:30N 40°43' W 074°03'0 0.0
2017-Oct-16 13:00N 40°43' W 074°03'1 1.1
2017-Oct-16 12:31N 40°42' W 074°02'2 3.2
2017-Oct-16 12:01N 40°44' W 074°01'0 0.0
2017-Oct-15 22:54N 40°44' W 074°01'0 0.8
2017-Oct-15 22:30N 40°44' W 074°01'2 3.6
2017-Oct-15 22:00N 40°42' W 074°00'2 3.8
2017-Oct-15 21:30N 40°41' W 074°02'2 3.8
2017-Oct-15 21:00N 40°42' W 074°00'0 0.0
2017-Oct-15 20:30N 40°42' W 074°00'2 4.1
2017-Oct-15 20:00N 40°41' W 074°03'2 4.1
2017-Oct-15 19:30N 40°42' W 074°00'0 0.0
2017-Oct-15 19:00N 40°42' W 074°00'2 4.0
2017-Oct-15 18:30N 40°41' W 074°02'2 4.0
2017-Oct-15 18:00N 40°42' W 074°00'0 0.0
2017-Oct-15 17:30N 40°42' W 074°00'1 2.0
2017-Oct-15 17:00N 40°42' W 074°01'1 2.0
2017-Oct-15 16:30N 40°42' W 074°00'0 0.0
2017-Oct-15 16:00N 40°42' W 074°00'2 3.3
2017-Oct-15 15:30N 40°41' W 074°02'2 3.3
2017-Oct-15 15:00N 40°42' W 074°00'2 2.0
2017-Oct-15 14:00N 40°41' W 074°03'2 4.1
2017-Oct-15 13:30N 40°42' W 074°00'0 0.0
2017-Oct-15 13:00N 40°42' W 074°00'1 2.2
2017-Oct-15 12:30N 40°43' W 074°01'1 2.1
2017-Oct-15 12:00N 40°44' W 074°01'0 0.0
2017-Oct-15 06:04N 40°44' W 074°01'0 0.0
2017-Oct-15 06:00N 40°44' W 074°01'0 0.0
2017-Oct-15 05:30N 40°44' W 074°01'0 0.0
2017-Oct-15 05:00N 40°44' W 074°01'0 0.1
2017-Oct-15 04:30N 40°44' W 074°01'0 0.0
2017-Oct-15 04:00N 40°44' W 074°01'2 3.6
2017-Oct-15 03:30N 40°42' W 074°01'1 2.5
2017-Oct-15 03:00N 40°41' W 074°02'2 4.5
2017-Oct-15 02:30N 40°43' W 074°01'1 2.0
2017-Oct-15 02:00N 40°44' W 074°01'1 1.1
2017-Oct-15 01:30N 40°44' W 074°01'0 0.0
2017-Oct-15 01:00N 40°44' W 074°01'0 0.0
2017-Oct-15 00:30N 40°44' W 074°01'0 0.0
2017-Oct-15 00:00N 40°44' W 074°01'0 0.0
2017-Oct-14 23:30N 40°44' W 074°01'0 0.0
2017-Oct-14 23:00N 40°44' W 074°01'0 0.0
2017-Oct-14 20:53N 40°44' W 074°01'0 0.5
2017-Oct-14 20:30N 40°44' W 074°01'1 2.0
2017-Oct-14 20:00N 40°43' W 074°01'1 2.1
2017-Oct-14 19:30N 40°42' W 074°00'2 3.9
2017-Oct-14 19:00N 40°41' W 074°02'2 3.9
2017-Oct-14 18:30N 40°42' W 074°00'0 0.0
2017-Oct-14 17:59N 40°42' W 074°00'2 4.1
2017-Oct-14 17:30N 40°41' W 074°02'2 3.9
2017-Oct-14 16:59N 40°42' W 074°00'0 0.0
2017-Oct-14 16:30N 40°42' W 074°00'2 3.8
2017-Oct-14 16:00N 40°41' W 074°02'2 3.7
2017-Oct-14 15:30N 40°42' W 074°00'0 0.0
2017-Oct-14 15:00N 40°42' W 074°00'2 3.8
2017-Oct-14 14:30N 40°41' W 074°02'2 3.7
2017-Oct-14 14:00N 40°42' W 074°00'0 0.0
2017-Oct-14 13:30N 40°42' W 074°00'0 0.0
2017-Oct-14 13:00N 40°42' W 074°00'1 1.5
2017-Oct-14 12:30N 40°42' W 074°01'2 0.1
2017-Oct-13 22:37N 40°44' W 074°01'0 2.1
2017-Oct-13 22:30N 40°44' W 074°01'2 3.2
2017-Oct-13 22:00N 40°42' W 074°00'0 0.0
2017-Oct-13 21:00N 40°42' W 074°00'0 0.0
2017-Oct-13 20:30N 40°42' W 074°00'2 4.1
2017-Oct-13 20:00N 40°41' W 074°03'2 4.1
2017-Oct-13 19:30N 40°42' W 074°00'0 0.0
2017-Oct-13 19:00N 40°42' W 074°00'2 4.1
2017-Oct-13 18:30N 40°41' W 074°03'2 4.0
2017-Oct-13 18:00N 40°42' W 074°00'0 0.0
2017-Oct-13 17:30N 40°42' W 074°00'2 4.2
2017-Oct-13 17:00N 40°41' W 074°03'2 4.4
2017-Oct-13 16:30N 40°42' W 074°00'0 0.0
2017-Oct-13 16:00N 40°42' W 074°00'2 3.9
2017-Oct-13 15:29N 40°41' W 074°02'2 4.1
2017-Oct-13 15:00N 40°42' W 074°00'0 0.0
2017-Oct-13 14:30N 40°42' W 074°00'2 4.3
2017-Oct-13 14:00N 40°41' W 074°03'2 4.4
2017-Oct-13 13:30N 40°42' W 074°00'0 0.0
2017-Oct-13 13:00N 40°42' W 074°00'1 1.8
2017-Oct-13 12:31N 40°42' W 074°01'2 3.5
2017-Oct-13 12:00N 40°44' W 074°01'0 0.0
2017-Oct-12 22:57N 40°44' W 074°01'1 2.5
2017-Oct-12 22:30N 40°43' W 074°01'1 1.9
2017-Oct-12 22:00N 40°42' W 074°00'2 4.1
2017-Oct-12 21:30N 40°41' W 074°03'2 4.2
2017-Oct-12 21:00N 40°42' W 074°00'0 0.0
2017-Oct-12 20:30N 40°42' W 074°00'2 4.1
2017-Oct-12 20:00N 40°41' W 074°03'2 4.2
2017-Oct-12 19:30N 40°42' W 074°00'0 0.0
2017-Oct-12 19:00N 40°42' W 074°00'2 3.8
2017-Oct-12 18:30N 40°41' W 074°02'2 3.8
2017-Oct-12 18:00N 40°42' W 074°00'0 0.0
2017-Oct-12 17:30N 40°42' W 074°00'2 4.2
2017-Oct-12 17:00N 40°41' W 074°03'2 4.3
2017-Oct-12 16:30N 40°42' W 074°00'0 0.0
2017-Oct-12 16:00N 40°42' W 074°00'2 4.2
2017-Oct-12 15:30N 40°41' W 074°03'2 4.2
2017-Oct-12 15:00N 40°42' W 074°00'0 0.0
2017-Oct-12 14:30N 40°42' W 074°00'2 3.7
2017-Oct-12 14:00N 40°41' W 074°02'2 3.7
2017-Oct-12 13:30N 40°42' W 074°00'0 0.0
2017-Oct-12 13:00N 40°42' W 074°00'2 3.3
2017-Oct-12 12:30N 40°44' W 074°01'0 0.0
2017-Oct-11 22:42N 40°44' W 074°01'0 1.0
2017-Oct-11 22:30N 40°44' W 074°01'2 3.1
2017-Oct-11 22:00N 40°42' W 074°00'0 0.0
2017-Oct-11 20:59N 40°42' W 074°00'0 0.0
2017-Oct-11 20:30N 40°42' W 074°00'2 3.4
2017-Oct-11 20:00N 40°41' W 074°02'2 3.3
2017-Oct-11 19:30N 40°42' W 074°00'0 0.0
2017-Oct-11 19:00N 40°42' W 074°00'2 3.5
2017-Oct-11 18:30N 40°42' W 074°02'2 3.3
2017-Oct-11 18:00N 40°42' W 074°00'0 0.0
2017-Oct-11 17:31N 40°42' W 074°00'2 4.2
2017-Oct-11 17:01N 40°41' W 074°03'3 0.2
2017-Oct-10 22:48N 40°44' W 074°01'0 1.2
2017-Oct-10 22:31N 40°44' W 074°01'1 2.8
2017-Oct-10 22:00N 40°42' W 074°00'2 3.2
2017-Oct-10 21:31N 40°41' W 074°02'2 3.2
2017-Oct-10 21:01N 40°42' W 074°00'0 0.0
2017-Oct-10 20:30N 40°42' W 074°00'2 3.9
2017-Oct-10 20:00N 40°41' W 074°02'2 3.9
2017-Oct-10 19:30N 40°42' W 074°00'0 0.0
2017-Oct-10 19:01N 40°42' W 074°00'2 3.9
2017-Oct-10 18:31N 40°41' W 074°02'2 3.8
2017-Oct-10 18:00N 40°42' W 074°00'0 0.0
2017-Oct-10 17:30N 40°42' W 074°00'2 3.7
2017-Oct-10 17:01N 40°41' W 074°02'2 3.7
2017-Oct-10 16:31N 40°42' W 074°00'0 0.0
2017-Oct-10 16:00N 40°42' W 074°00'1 2.5
2017-Oct-10 15:30N 40°42' W 074°02'1 2.5
2017-Oct-10 15:01N 40°42' W 074°00'2 1.7
2017-Oct-10 14:01N 40°41' W 074°02'2 3.4
2017-Oct-10 13:30N 40°42' W 074°00'2 3.6
2017-Oct-10 13:01N 40°43' W 074°02'0 0.0
2017-Oct-10 12:30N 40°43' W 074°02'2 3.6
2017-Oct-10 12:01N 40°44' W 074°01'0 0.0
2017-Oct-09 22:41N 40°44' W 074°01'0 0.4
2017-Oct-09 22:30N 40°44' W 074°01'2 3.3
2017-Oct-09 22:00N 40°42' W 074°00'2 3.8
2017-Oct-09 21:30N 40°41' W 074°02'2 3.8
2017-Oct-09 21:00N 40°42' W 074°00'0 0.0
2017-Oct-09 20:30N 40°42' W 074°00'2 3.4
2017-Oct-09 20:00N 40°41' W 074°02'2 3.4
2017-Oct-09 19:30N 40°42' W 074°00'0 0.0
2017-Oct-09 19:00N 40°42' W 074°00'2 3.4
2017-Oct-09 18:30N 40°41' W 074°02'2 3.4
2017-Oct-09 18:00N 40°42' W 074°00'0 0.0
2017-Oct-09 17:30N 40°42' W 074°00'2 3.6
2017-Oct-09 17:00N 40°41' W 074°02'2 3.6
2017-Oct-09 16:30N 40°42' W 074°00'0 0.0
2017-Oct-09 16:00N 40°42' W 074°00'2 4.0
2017-Oct-09 15:30N 40°41' W 074°02'2 3.9
2017-Oct-09 15:00N 40°42' W 074°00'0 0.0
2017-Oct-09 14:30N 40°42' W 074°00'1 2.4
2017-Oct-09 14:00N 40°42' W 074°02'1 2.4
2017-Oct-09 13:30N 40°42' W 074°00'0 0.0
2017-Oct-09 13:00N 40°42' W 074°00'2 3.4
2017-Oct-09 12:30N 40°44' W 074°01'0 0.2
2017-Oct-09 12:00N 40°44' W 074°01'0 0.0
2017-Oct-09 11:30N 40°44' W 074°01'0 0.0
2017-Oct-08 22:54N 40°44' W 074°01'1 3.4
2017-Oct-08 22:30N 40°43' W 074°01'1 1.7
2017-Oct-08 22:00N 40°42' W 074°00'2 3.3
2017-Oct-08 21:30N 40°41' W 074°02'2 3.2
2017-Oct-08 21:00N 40°42' W 074°00'0 0.0
2017-Oct-08 20:30N 40°42' W 074°00'2 3.8
2017-Oct-08 20:00N 40°41' W 074°02'2 4.0
2017-Oct-08 19:30N 40°42' W 074°00'0 0.0
2017-Oct-08 18:59N 40°42' W 074°00'2 4.0
2017-Oct-08 18:30N 40°41' W 074°02'2 3.9
2017-Oct-08 18:00N 40°42' W 074°00'0 0.0
2017-Oct-08 17:30N 40°42' W 074°00'2 3.9
2017-Oct-08 17:00N 40°41' W 074°02'2 4.0
2017-Oct-08 16:30N 40°42' W 074°00'0 0.2
2017-Oct-08 16:00N 40°42' W 074°00'2 4.2
2017-Oct-08 15:30N 40°41' W 074°03'2 4.0
2017-Oct-08 15:00N 40°42' W 074°00'0 0.0
2017-Oct-08 14:30N 40°42' W 074°00'1 2.5
2017-Oct-08 14:00N 40°42' W 074°02'1 2.4
2017-Oct-08 13:30N 40°42' W 074°00'0 0.0
2017-Oct-08 13:00N 40°42' W 074°00'2 3.2
2017-Oct-08 12:30N 40°44' W 074°01'0 0.5
2017-Oct-08 12:00N 40°44' W 074°01'0 0.0
2017-Oct-08 03:52N 40°44' W 074°01'1 1.5
2017-Oct-08 03:30N 40°44' W 074°01'3 5.7
2017-Oct-08 03:00N 40°41' W 074°02'3 6.3
2017-Oct-08 02:30N 40°43' W 073°58'2 4.9
2017-Oct-08 02:00N 40°44' W 074°01'1 1.1
2017-Oct-08 01:30N 40°44' W 074°01'0 0.0
2017-Oct-07 20:27N 40°44' W 074°01'1 2.9
2017-Oct-07 20:00N 40°43' W 074°01'2 1.7
2017-Oct-07 19:00N 40°41' W 074°03'2 4.1
2017-Oct-07 18:30N 40°42' W 074°00'0 0.0
2017-Oct-07 18:00N 40°42' W 074°00'2 4.1
2017-Oct-07 17:30N 40°41' W 074°03'2 4.2
2017-Oct-07 17:00N 40°42' W 074°00'0 0.3
2017-Oct-07 16:30N 40°42' W 073°60'2 3.8
2017-Oct-07 16:00N 40°42' W 074°02'2 3.6
2017-Oct-07 15:30N 40°42' W 074°00'0 0.2
2017-Oct-07 15:00N 40°42' W 074°00'2 4.1
2017-Oct-07 14:30N 40°41' W 074°02'2 3.9
2017-Oct-07 14:00N 40°42' W 074°00'0 0.2
2017-Oct-07 13:30N 40°42' W 074°00'2 3.5
2017-Oct-07 13:00N 40°44' W 074°01'0 0.2
2017-Oct-07 12:30N 40°44' W 074°01'0 0.0
2017-Oct-07 07:41N 40°44' W 074°01'0 0.5
2017-Oct-07 07:30N 40°44' W 074°01'2 3.3
2017-Oct-07 07:00N 40°42' W 074°00'0 0.0
2017-Oct-07 06:30N 40°42' W 074°00'0 0.0
2017-Oct-07 06:00N 40°42' W 074°00'0 0.7
2017-Oct-07 05:30N 40°42' W 074°00'1 3.0
2017-Oct-07 05:00N 40°42' W 074°02'1 2.2
2017-Oct-07 04:30N 40°42' W 074°01'1 1.3
2017-Oct-07 04:00N 40°42' W 074°00'0 0.0
2017-Oct-07 03:30N 40°42' W 074°00'0 0.0
2017-Oct-07 02:59N 40°42' W 074°00'0 0.0
2017-Oct-07 02:30N 40°42' W 074°00'0 0.0
2017-Oct-07 02:00N 40°42' W 074°00'0 0.4
2017-Oct-07 01:30N 40°42' W 074°00'2 3.5
2017-Oct-07 01:00N 40°44' W 074°01'0 0.0
2017-Oct-07 00:30N 40°44' W 074°01'0 0.0
2017-Oct-07 00:00N 40°44' W 074°01'0 0.0
2017-Oct-06 23:30N 40°44' W 074°01'0 0.0
2017-Oct-06 23:00N 40°44' W 074°01'2 3.7
2017-Oct-06 22:30N 40°42' W 074°01'  

Dump ship's entire track history